Time;durP1;ratioP1;P1;durP2;ratioP2;P2;SDS_P1;SDS_P2;PMS_P1;PMS_P2;Temp;Humidity;BMP_temperature;BMP_pressure;BME280_temperature;BME280_humidity;BME280_pressure;Samples;Min_cycle;Max_cycle;Signal;HPM_P1;HPM_P2
2022/05/16 00:00:11;;;;;;;3.00;1.00;;;21.30;50.30;;;;;;5032023;28;20910;-75
2022/05/16 00:02:38;;;;;;;1.80;1.00;;;21.30;50.30;;;;;;5032124;28;20944;-75
2022/05/16 00:05:04;;;;;;;4.67;1.20;;;21.30;50.30;;;;;;5030695;28;20577;-75
2022/05/16 00:07:30;;;;;;;4.67;1.00;;;21.30;50.50;;;;;;5031762;28;21298;-75
2022/05/16 00:09:55;;;;;;;2.60;1.40;;;21.20;50.50;;;;;;5031952;28;20569;-75
2022/05/16 00:12:21;;;;;;;2.37;1.17;;;21.20;50.90;;;;;;5031986;28;20235;-75
2022/05/16 00:14:47;;;;;;;4.47;1.63;;;21.20;50.70;;;;;;5031834;28;20189;-75
2022/05/16 00:17:13;;;;;;;5.27;1.23;;;21.10;50.50;;;;;;5031402;28;20181;-76
2022/05/16 00:19:40;;;;;;;6.40;1.73;;;21.10;50.70;;;;;;5031437;28;21203;-76
2022/05/16 00:22:07;;;;;;;2.37;1.47;;;21.10;51.00;;;;;;5031785;28;20608;-75
2022/05/16 00:24:33;;;;;;;3.60;1.50;;;21.10;51.20;;;;;;5032460;28;21373;-75
2022/05/16 00:27:01;;;;;;;2.53;1.23;;;21.00;51.40;;;;;;5031252;28;20635;-75
2022/05/16 00:29:26;;;;;;;5.30;1.50;;;21.00;51.30;;;;;;5031919;28;21132;-75
2022/05/16 00:31:54;;;;;;;2.70;1.23;;;21.00;51.40;;;;;;5031416;28;20604;-75
2022/05/16 00:34:21;;;;;;;3.40;1.20;;;20.90;51.80;;;;;;5031661;28;20583;-75
2022/05/16 00:36:47;;;;;;;6.23;1.03;;;20.90;51.50;;;;;;5031012;28;20572;-75
2022/05/16 00:39:17;;;;;;;2.87;1.10;;;20.90;51.50;;;;;;5031622;28;20964;-75
2022/05/16 00:41:44;;;;;;;2.90;1.20;;;20.90;51.50;;;;;;5031310;28;20247;-75
2022/05/16 00:44:11;;;;;;;5.27;1.30;;;20.90;51.50;;;;;;5031848;28;20600;-75
2022/05/16 00:46:36;;;;;;;2.90;1.20;;;20.80;51.60;;;;;;5031543;28;20714;-75
2022/05/16 00:49:05;;;;;;;5.03;1.40;;;20.80;51.70;;;;;;5030921;28;20672;-76
2022/05/16 00:51:55;;;;;;;2.93;1.50;;;20.80;51.90;;;;;;5031260;28;20182;-75
2022/05/16 00:54:27;;;;;;;1.93;1.20;;;20.70;52.00;;;;;;5030301;28;20564;-75
2022/05/16 00:56:59;;;;;;;3.67;1.57;;;20.70;52.10;;;;;;5031059;28;20626;-76
2022/05/16 00:59:34;;;;;;;4.03;1.40;;;20.70;52.60;;;;;;5033579;28;20960;-75
2022/05/16 01:06:06;;;;;;;3.00;1.20;;;20.60;53.30;;;;;;5035543;28;20598;-75
2022/05/16 01:08:34;;;;;;;2.13;1.00;;;20.50;52.60;;;;;;5035604;28;20568;-75
2022/05/16 01:19:13;;;;;;;3.00;1.10;;;20.50;53.00;;;;;;5035376;28;20624;-75
2022/05/16 01:25:42;;;;;;;3.77;1.47;;;20.40;54.00;;;;;;5035300;28;20165;-75
2022/05/16 01:28:07;;;;;;;3.97;1.30;;;20.40;53.40;;;;;;5035171;28;20623;-74
2022/05/16 01:30:49;;;;;;;4.00;1.40;;;20.40;54.00;;;;;;5034853;28;20169;-74
2022/05/16 01:33:17;;;;;;;3.40;1.20;;;20.40;54.50;;;;;;5034643;28;20197;-75
2022/05/16 01:35:43;;;;;;;4.20;1.53;;;20.40;54.00;;;;;;5034764;28;20572;-75
2022/05/16 01:38:19;;;;;;;3.77;2.23;;;20.40;54.10;;;;;;5017206;28;20576;-75
2022/05/16 01:40:45;;;;;;;3.70;1.30;;;20.40;54.20;;;;;;5034614;28;20574;-75
2022/05/16 01:43:12;;;;;;;6.53;1.60;;;20.40;55.30;;;;;;5033141;28;20607;-74
2022/05/16 01:45:41;;;;;;;4.37;1.47;;;20.40;54.80;;;;;;5034659;28;20671;-75
2022/05/16 01:48:08;;;;;;;3.53;1.37;;;20.40;54.80;;;;;;5034590;28;20631;-75
2022/05/16 01:50:34;;;;;;;3.53;1.73;;;20.40;55.20;;;;;;5034578;28;20571;-75
2022/05/16 01:53:01;;;;;;;5.80;2.20;;;20.40;55.30;;;;;;5034102;28;20607;-75
2022/05/16 01:55:27;;;;;;;4.47;1.53;;;20.40;55.90;;;;;;5034666;28;20568;-75
2022/05/16 01:57:53;;;;;;;3.40;1.53;;;20.30;55.30;;;;;;5033308;28;20178;-75
2022/05/16 02:00:19;;;;;;;4.77;1.40;;;20.30;55.70;;;;;;5034044;28;20937;-75
2022/05/16 02:02:45;;;;;;;3.10;1.20;;;20.30;55.80;;;;;;5034126;28;20611;-75
2022/05/16 02:05:17;;;;;;;3.03;1.40;;;20.30;55.90;;;;;;5034514;28;21043;-75
2022/05/16 02:07:43;;;;;;;3.30;1.60;;;20.30;56.50;;;;;;5034413;28;21051;-75
2022/05/16 02:10:10;;;;;;;2.73;1.23;;;20.30;56.30;;;;;;5032288;28;20645;-75
2022/05/16 02:12:36;;;;;;;4.37;2.00;;;20.30;56.60;;;;;;5033567;28;20202;-75
2022/05/16 02:15:05;;;;;;;3.73;1.50;;;20.20;57.10;;;;;;5033898;28;20571;-75
2022/05/16 02:17:30;;;;;;;2.43;1.30;;;20.20;56.60;;;;;;5034335;28;20166;-75
2022/05/16 02:19:56;;;;;;;4.73;1.93;;;20.20;56.70;;;;;;5033843;28;21212;-75
2022/05/16 02:25:06;;;;;;;3.83;1.70;;;20.20;56.90;;;;;;5034029;28;20173;-74
2022/05/16 02:27:32;;;;;;;4.37;1.30;;;20.10;56.90;;;;;;5034093;28;20714;-75
2022/05/16 02:29:58;;;;;;;2.20;1.63;;;20.10;57.00;;;;;;5033410;28;20675;-75
2022/05/16 02:32:24;;;;;;;3.50;1.53;;;20.10;57.50;;;;;;5033420;28;20182;-75
2022/05/16 02:34:50;;;;;;;3.17;1.33;;;20.10;57.80;;;;;;5033999;28;20166;-75
2022/05/16 02:37:16;;;;;;;3.53;1.50;;;20.00;57.80;;;;;;5034006;28;20560;-74
2022/05/16 02:39:44;;;;;;;4.77;1.83;;;20.00;57.90;;;;;;5033532;28;20568;-75
2022/05/16 02:42:11;;;;;;;3.67;1.50;;;20.00;58.30;;;;;;5033136;28;20607;-75
2022/05/16 02:44:38;;;;;;;3.10;1.30;;;19.90;58.10;;;;;;5033542;28;20576;-75
2022/05/16 02:47:05;;;;;;;2.40;1.90;;;19.90;58.10;;;;;;5033672;28;20658;-74
2022/05/16 02:49:31;;;;;;;3.33;1.80;;;19.90;58.50;;;;;;5033658;28;20656;-74
2022/05/16 02:51:57;;;;;;;2.93;1.87;;;19.80;59.00;;;;;;5032822;28;21048;-74
2022/05/16 02:54:23;;;;;;;3.80;2.13;;;19.80;59.40;;;;;;5033424;28;20629;-75
2022/05/16 02:56:49;;;;;;;2.43;1.10;;;19.80;60.00;;;;;;5033468;28;20679;-74
2022/05/16 02:59:16;;;;;;;3.20;1.20;;;19.70;60.20;;;;;;5032131;28;20227;-75
2022/05/16 03:01:42;;;;;;;7.13;1.60;;;19.70;59.80;;;;;;5032577;28;20604;-74
2022/05/16 03:04:08;;;;;;;2.53;1.70;;;19.70;60.90;;;;;;5033492;28;20572;-74
2022/05/16 03:06:34;;;;;;;4.87;1.93;;;19.60;61.20;;;;;;5033279;28;20212;-74
2022/05/16 03:09:00;;;;;;;3.90;1.70;;;19.60;60.70;;;;;;5033274;28;20661;-75
2022/05/16 03:11:26;;;;;;;3.70;2.00;;;19.60;61.40;;;;;;5032126;28;20616;-74
2022/05/16 03:13:52;;;;;;;3.47;1.80;;;19.60;62.60;;;;;;5032982;28;21100;-74
2022/05/16 03:16:18;;;;;;;3.30;1.53;;;19.60;62.60;;;;;;5033149;28;20929;-74
2022/05/16 03:18:44;;;;;;;3.67;1.53;;;19.50;62.70;;;;;;5033200;28;20246;-74
2022/05/16 03:21:10;;;;;;;2.60;1.73;;;19.50;62.40;;;;;;5032230;28;20580;-74
2022/05/16 03:23:36;;;;;;;2.87;1.40;;;19.50;63.80;;;;;;5031568;28;20284;-75
2022/05/16 03:26:01;;;;;;;3.60;2.30;;;19.50;63.20;;;;;;5032897;28;21108;-74
2022/05/16 03:28:27;;;;;;;3.80;1.87;;;19.40;63.40;;;;;;5032887;28;20173;-74
2022/05/16 03:30:57;;;;;;;4.63;2.80;;;19.40;64.20;;;;;;5032438;28;20177;-75
2022/05/16 03:33:24;;;;;;;3.10;1.50;;;19.40;64.50;;;;;;5032433;28;20600;-75
2022/05/16 03:35:55;;;;;;;4.03;1.70;;;19.40;64.60;;;;;;5032753;28;20568;-75
2022/05/16 03:41:09;;;;;;;2.53;1.40;;;19.30;65.50;;;;;;5031945;28;20579;-74
2022/05/16 03:43:37;;;;;;;3.67;1.43;;;19.30;65.70;;;;;;5032094;28;20660;-74
2022/05/16 03:46:03;;;;;;;4.40;1.43;;;19.30;65.40;;;;;;5032446;28;20561;-74
2022/05/16 03:48:29;;;;;;;4.27;1.30;;;19.30;65.80;;;;;;5032455;28;20607;-75
2022/05/16 03:50:55;;;;;;;4.63;1.33;;;19.30;66.30;;;;;;5032234;28;20593;-75
2022/05/16 03:53:20;;;;;;;4.23;1.43;;;19.30;67.00;;;;;;5031892;28;20174;-75
2022/05/16 03:55:46;;;;;;;4.27;1.60;;;19.30;66.40;;;;;;5032380;28;20959;-75
2022/05/16 03:58:12;;;;;;;4.90;1.73;;;19.30;66.60;;;;;;5032253;28;20178;-75
2022/05/16 04:00:38;;;;;;;2.70;1.33;;;19.30;67.00;;;;;;5014252;28;20224;-75
2022/05/16 04:03:04;;;;;;;3.07;1.50;;;19.30;67.20;;;;;;5031623;28;20608;-75
2022/05/16 04:05:29;;;;;;;5.23;2.87;;;19.30;67.50;;;;;;5032316;28;20668;-75
2022/05/16 04:07:55;;;;;;;4.03;2.20;;;19.30;67.50;;;;;;5032142;28;20194;-75
2022/05/16 04:10:21;;;;;;;4.27;1.57;;;19.30;69.30;;;;;;5031695;28;20577;-74
2022/05/16 04:12:48;;;;;;;6.73;1.73;;;19.20;68.40;;;;;;5031421;28;20221;-75
2022/05/16 04:15:15;;;;;;;3.63;1.80;;;19.20;68.60;;;;;;5031985;28;20568;-74
2022/05/16 04:17:41;;;;;;;3.73;2.37;;;19.20;69.00;;;;;;5032101;28;20599;-75
2022/05/16 04:20:09;;;;;;;4.40;1.70;;;19.20;69.40;;;;;;5031641;28;20565;-74
2022/05/16 04:22:35;;;;;;;2.97;1.70;;;19.20;70.20;;;;;;5031352;28;20615;-74
2022/05/16 04:25:01;;;;;;;2.80;1.50;;;19.30;70.60;;;;;;5031796;28;20944;-75
2022/05/16 04:27:27;;;;;;;4.30;2.00;;;19.30;70.30;;;;;;5031818;28;20612;-74
2022/05/16 04:29:52;;;;;;;6.30;1.80;;;19.30;70.30;;;;;;5031650;28;21160;-75
2022/05/16 04:32:18;;;;;;;4.17;1.83;;;19.40;70.70;;;;;;5031193;28;20181;-75
2022/05/16 04:34:44;;;;;;;4.10;2.60;;;19.40;71.40;;;;;;5031594;28;20638;-75
2022/05/16 04:37:09;;;;;;;4.10;1.60;;;19.40;71.50;;;;;;5030482;28;20181;-74
2022/05/16 04:39:35;;;;;;;3.43;1.70;;;19.50;71.80;;;;;;5031455;28;20305;-74
2022/05/16 04:44:45;;;;;;;6.77;2.10;;;19.60;71.90;;;;;;5031800;28;20537;-74
2022/05/16 04:47:12;;;;;;;7.73;1.80;;;19.70;72.10;;;;;;5031570;28;20715;-75
2022/05/16 04:49:38;;;;;;;3.73;2.17;;;19.80;72.30;;;;;;5030866;28;20253;-75
2022/05/16 04:52:04;;;;;;;4.93;1.90;;;19.90;72.20;;;;;;5030850;28;20616;-75
2022/05/16 04:54:29;;;;;;;4.70;1.63;;;20.00;72.70;;;;;;5031305;28;20216;-75
2022/05/16 04:56:55;;;;;;;3.83;1.80;;;20.10;72.30;;;;;;5031458;28;20621;-75
2022/05/16 04:59:21;;;;;;;5.27;1.93;;;20.20;72.40;;;;;;5031491;28;20247;-75
2022/05/16 05:01:48;;;;;;;3.93;1.70;;;20.30;72.30;;;;;;5030531;28;20592;-75
2022/05/16 05:04:14;;;;;;;5.97;2.67;;;20.40;72.30;;;;;;5031429;28;20649;-75
2022/05/16 05:06:40;;;;;;;3.90;1.70;;;20.40;72.40;;;;;;5031164;28;20612;-74
2022/05/16 05:09:06;;;;;;;6.00;2.33;;;20.50;72.20;;;;;;5031164;28;20565;-75
2022/05/16 05:14:32;;;;;;;2.70;1.60;;;20.60;71.70;;;;;;5031213;28;20584;-75
2022/05/16 05:16:59;;;;;;;3.83;2.00;;;20.70;71.60;;;;;;5030183;28;20580;-75
2022/05/16 05:19:25;;;;;;;4.93;3.17;;;20.80;71.50;;;;;;5031049;28;20579;-75
2022/05/16 05:21:50;;;;;;;4.63;1.77;;;20.80;71.30;;;;;;5030450;28;20603;-75
2022/05/16 05:28:22;;;;;;;6.17;1.70;;;20.80;71.20;;;;;;5029623;28;20216;-75
2022/05/16 05:30:51;;;;;;;6.20;1.90;;;20.80;70.80;;;;;;5030693;28;20654;-75
2022/05/16 05:33:17;;;;;;;5.03;2.00;;;20.80;70.90;;;;;;5029701;28;20596;-75
2022/05/16 05:35:43;;;;;;;3.60;1.57;;;20.80;70.80;;;;;;5030628;28;21028;-75
2022/05/16 05:38:09;;;;;;;5.63;2.03;;;20.80;70.90;;;;;;5013017;28;20189;-74
2022/05/16 05:40:37;;;;;;;9.03;2.03;;;20.80;70.90;;;;;;5030669;28;20569;-75
2022/05/16 05:43:04;;;;;;;5.97;2.03;;;20.80;71.20;;;;;;5030613;28;20997;-75
2022/05/16 05:45:30;;;;;;;3.40;1.63;;;20.80;71.10;;;;;;5030975;28;20662;-74
2022/05/16 05:47:55;;;;;;;4.07;1.93;;;20.80;71.00;;;;;;5032924;28;20737;-75
2022/05/16 05:50:21;;;;;;;5.27;2.07;;;20.80;70.80;;;;;;5032133;28;20165;-75
2022/05/16 05:52:47;;;;;;;3.40;1.80;;;20.80;71.00;;;;;;5031173;28;20185;-75
2022/05/16 05:55:13;;;;;;;4.93;1.90;;;20.80;71.10;;;;;;5033501;28;20169;-75
2022/05/16 05:57:39;;;;;;;3.83;1.80;;;20.80;71.00;;;;;;5016122;28;20587;-75
2022/05/16 06:00:09;;;;;;;5.83;1.90;;;20.80;71.20;;;;;;5033610;28;20618;-75
2022/05/16 06:02:40;;;;;;;3.90;1.87;;;20.70;71.10;;;;;;5032883;28;20280;-75
2022/05/16 06:05:10;;;;;;;4.77;1.97;;;20.70;71.10;;;;;;5031931;28;20584;-75
2022/05/16 06:08:26;;;;;;;;;;;;;;;;;;;;;
2022/05/16 06:14:11;;;;;;;3.47;1.67;;;20.70;71.80;;;;;;5027615;28;20181;-76
2022/05/16 06:16:37;;;;;;;7.30;2.40;;;20.60;71.80;;;;;;5030450;28;20722;-76
2022/05/16 06:19:03;;;;;;;6.50;2.30;;;20.60;74.20;;;;;;5038021;28;21100;-77
2022/05/16 06:21:28;;;;;;;5.40;2.30;;;20.60;73.40;;;;;;5033177;28;20247;-76
2022/05/16 06:23:54;;;;;;;4.73;2.00;;;20.60;74.10;;;;;;5056404;23;20174;-75
2022/05/16 06:26:21;;;;;;;5.70;2.10;;;20.60;74.10;;;;;;5032870;28;20178;-73
2022/05/16 06:28:46;;;;;;;6.00;1.90;;;20.60;74.00;;;;;;5033387;28;20181;-73
2022/05/16 06:31:16;;;;;;;5.17;2.57;;;20.60;74.20;;;;;;5032022;28;20561;-75
2022/05/16 06:33:47;;;;;;;6.93;1.87;;;20.60;74.40;;;;;;5033321;28;20224;-73
2022/05/16 06:36:13;;;;;;;3.33;1.87;;;20.60;74.70;;;;;;5032421;28;21099;-73
2022/05/16 06:38:39;;;;;;;5.47;2.20;;;20.60;75.40;;;;;;5031806;28;20646;-73
2022/05/16 06:41:06;;;;;;;4.87;2.00;;;20.60;76.90;;;;;;5032767;28;20596;-74
2022/05/16 06:43:33;;;;;;;3.60;1.57;;;20.60;75.90;;;;;;5033084;28;20799;-74
2022/05/16 06:45:59;;;;;;;2.67;1.40;;;20.60;76.20;;;;;;5014804;28;20719;-73
2022/05/16 06:48:25;;;;;;;8.60;2.20;;;20.60;76.80;;;;;;5031790;28;20616;-74
2022/05/16 06:50:52;;;;;;;6.37;2.07;;;20.50;76.70;;;;;;5032036;28;20583;-73
2022/05/16 06:53:23;;;;;;;3.57;1.90;;;20.60;77.40;;;;;;5031399;28;20611;-73
2022/05/16 06:55:50;;;;;;;2.53;1.37;;;20.50;78.30;;;;;;5030599;28;20682;-74
2022/05/16 06:58:16;;;;;;;7.47;2.47;;;20.50;78.50;;;;;;5014636;28;20619;-73
2022/05/16 07:00:42;;;;;;;3.30;1.57;;;20.50;79.50;;;;;;5031100;28;20624;-73
2022/05/16 07:03:10;;;;;;;3.77;1.60;;;20.60;79.50;;;;;;5031421;28;20564;-74
2022/05/16 07:05:36;;;;;;;6.60;2.50;;;20.60;80.40;;;;;;5030583;28;20600;-73
2022/05/16 07:08:01;;;;;;;3.80;1.87;;;20.60;82.20;;;;;;5031033;28;20694;-74
2022/05/16 07:10:28;;;;;;;4.07;1.80;;;20.60;82.30;;;;;;5031974;28;20625;-73
2022/05/16 07:12:54;;;;;;;5.00;2.00;;;20.50;82.50;;;;;;5032567;28;20698;-74
2022/05/16 07:15:20;;;;;;;3.17;1.53;;;20.50;83.90;;;;;;5031752;28;20996;-73
2022/05/16 07:17:47;;;;;;;3.27;1.80;;;20.50;83.70;;;;;;5028487;28;20592;-73
2022/05/16 07:20:13;;;;;;;2.33;1.63;;;20.50;83.40;;;;;;5029567;28;20584;-73
2022/05/16 07:22:45;;;;;;;10.83;2.20;;;20.50;83.60;;;;;;5027646;28;20603;-74
2022/05/16 07:25:13;;;;;;;3.43;2.07;;;20.60;84.70;;;;;;5028853;28;21248;-73
2022/05/16 07:27:57;;;;;;;3.70;1.77;;;20.60;84.70;;;;;;5027528;28;21068;-73
2022/05/16 07:30:34;;;;;;;6.00;2.50;;;20.60;85.80;;;;;;5030141;28;20683;-73
2022/05/16 07:33:01;;;;;;;3.70;2.00;;;20.70;85.60;;;;;;5032019;28;20901;-73
2022/05/16 07:35:30;;;;;;;4.23;1.70;;;20.80;86.20;;;;;;5031203;28;20680;-74
2022/05/16 07:37:57;;;;;;;4.30;2.27;;;20.90;86.40;;;;;;5031860;28;20571;-74
2022/05/16 07:40:29;;;;;;;5.00;1.77;;;21.00;87.10;;;;;;5030724;28;20624;-74
2022/05/16 07:42:55;;;;;;;5.60;2.33;;;21.00;86.70;;;;;;5031120;28;21195;-74
2022/05/16 07:45:22;;;;;;;4.83;1.83;;;21.10;86.60;;;;;;5031687;28;20652;-74
2022/05/16 07:47:52;;;;;;;4.70;1.80;;;21.20;86.60;;;;;;5031357;28;20631;-74
2022/05/16 07:50:18;;;;;;;5.10;1.90;;;21.20;86.80;;;;;;5031542;28;20577;-73
2022/05/16 07:52:47;;;;;;;4.93;1.80;;;21.30;86.70;;;;;;5030483;28;20573;-75
2022/05/16 07:55:22;;;;;;;3.33;1.90;;;21.40;86.70;;;;;;5030220;28;20627;-75
2022/05/16 07:57:49;;;;;;;6.30;2.40;;;21.50;87.00;;;;;;5014194;28;20575;-74
2022/05/16 08:00:16;;;;;;;6.17;2.20;;;21.60;86.60;;;;;;5029845;28;20588;-74
2022/05/16 08:02:42;;;;;;;6.37;2.27;;;21.60;86.20;;;;;;5030366;28;20595;-73
2022/05/16 08:05:10;;;;;;;6.33;2.40;;;21.70;86.10;;;;;;5030739;28;20624;-73
2022/05/16 08:10:29;;;;;;;4.97;2.70;;;21.70;86.10;;;;;;5013608;28;20207;-73
2022/05/16 08:10:31;;;;;;;2.33;1.30;;;21.80;86.20;;;;;;5028787;28;20595;-74
2022/05/16 08:13:06;;;;;;;4.57;2.30;;;21.90;86.40;;;;;;5013312;28;20679;-73
2022/05/16 08:15:34;;;;;;;6.83;2.23;;;22.00;86.70;;;;;;4993970;28;21017;-74
2022/05/16 08:18:02;;;;;;;6.20;1.90;;;22.10;86.60;;;;;;5029006;28;20587;-74
2022/05/16 08:20:29;;;;;;;5.90;2.97;;;22.10;86.40;;;;;;5030849;28;20928;-74
2022/05/16 08:22:55;;;;;;;2.50;1.80;;;22.20;87.00;;;;;;5029957;28;21021;-73
2022/05/16 08:25:22;;;;;;;4.33;1.70;;;22.10;87.80;;;;;;5030430;28;20631;-72
2022/05/16 08:27:51;;;;;;;2.80;1.53;;;22.00;87.70;;;;;;5029378;28;21208;-73
2022/05/16 08:30:18;;;;;;;3.20;2.20;;;21.90;87.50;;;;;;5039838;28;20633;-74
2022/05/16 08:32:44;;;;;;;5.30;2.27;;;21.80;88.50;;;;;;5041762;28;20584;-74
2022/05/16 08:35:14;;;;;;;3.93;1.93;;;21.70;89.80;;;;;;5027739;28;20628;-74
2022/05/16 08:40:36;;;;;;;6.37;3.80;;;21.50;90.90;;;;;;5028925;28;20580;-74
2022/05/16 08:43:11;;;;;;;5.40;2.67;;;21.50;92.00;;;;;;5029527;28;20584;-73
2022/05/16 08:46:11;;;;;;;3.30;2.13;;;21.60;92.60;;;;;;5010008;28;20604;-74
2022/05/16 08:48:43;;;;;;;4.67;2.10;;;21.70;93.60;;;;;;5013557;28;20592;-73
2022/05/16 08:51:15;;;;;;;4.03;2.00;;;22.00;93.60;;;;;;5031002;28;20560;-73
2022/05/16 08:53:47;;;;;;;4.80;1.63;;;22.20;93.80;;;;;;5029877;28;20574;-73
2022/05/16 08:56:19;;;;;;;6.77;2.70;;;22.50;94.00;;;;;;5030412;28;20583;-74
2022/05/16 08:58:58;;;;;;;4.07;2.50;;;22.90;94.80;;;;;;5029871;28;21003;-73
2022/05/16 09:01:38;;;;;;;5.40;1.90;;;23.40;95.40;;;;;;5029213;28;20600;-74
2022/05/16 09:04:18;;;;;;;3.00;1.30;;;24.20;95.00;;;;;;5029683;28;20607;-73
2022/05/16 09:07:09;;;;;;;4.30;1.80;;;25.20;95.80;;;;;;5029623;28;20648;-74
2022/05/16 09:10:05;;;;;;;3.37;1.83;;;26.50;96.80;;;;;;5020839;28;20915;-74
2022/05/16 09:12:43;;;;;;;2.80;2.07;;;28.10;94.40;;;;;;5010619;28;20727;-73
2022/05/16 09:15:16;;;;;;;4.20;1.47;;;29.50;93.80;;;;;;5010143;28;20604;-73
2022/05/16 09:18:03;;;;;;;2.97;1.40;;;30.80;92.00;;;;;;5010885;28;20574;-74
2022/05/16 09:20:39;;;;;;;3.20;1.70;;;31.80;89.00;;;;;;5022021;28;20709;-74
2022/05/16 09:23:43;;;;;;;2.47;1.23;;;32.90;86.10;;;;;;5034290;28;20685;-74
2022/05/16 09:26:35;;;;;;;4.80;2.03;;;34.20;73.60;;;;;;5030389;28;20597;-74
2022/05/16 09:29:05;;;;;;;3.87;1.20;;;35.30;76.80;;;;;;5031932;28;20588;-73
2022/05/16 09:31:40;;;;;;;4.97;1.60;;;36.30;70.50;;;;;;5034002;28;20659;-73
2022/05/16 09:34:07;;;;;;;2.90;1.20;;;37.20;65.20;;;;;;5030699;28;20619;-74
2022/05/16 09:36:35;;;;;;;2.50;1.10;;;38.10;64.10;;;;;;5031245;28;20742;-73
2022/05/16 09:39:03;;;;;;;2.33;1.20;;;38.80;59.20;;;;;;5021045;28;21290;-73
2022/05/16 09:42:06;;;;;;;2.73;1.43;;;39.20;56.90;;;;;;5031623;28;20595;-74
2022/05/16 09:44:42;;;;;;;4.00;1.30;;;39.50;54.40;;;;;;5025972;28;20686;-73
2022/05/16 09:47:28;;;;;;;5.30;1.30;;;39.70;51.70;;;;;;5033852;28;20631;-73
2022/05/16 09:50:23;;;;;;;4.43;1.50;;;39.80;48.80;;;;;;5033273;28;20592;-73
2022/05/16 09:53:14;;;;;;;2.43;1.20;;;40.00;51.60;;;;;;5030278;28;20686;-72
2022/05/16 09:55:54;;;;;;;4.70;1.50;;;40.40;49.60;;;;;;5033395;28;20937;-73
2022/05/16 09:58:26;;;;;;;5.50;1.10;;;40.40;46.40;;;;;;5032577;28;20572;-73
2022/05/16 10:00:59;;;;;;;2.57;1.10;;;40.40;46.30;;;;;;5033086;28;21215;-73
2022/05/16 10:03:41;;;;;;;4.77;1.50;;;40.40;44.30;;;;;;5029541;28;20675;-72
2022/05/16 10:06:25;;;;;;;2.17;1.00;;;40.30;44.00;;;;;;5027555;28;20947;-73
2022/05/16 10:08:51;;;;;;;4.80;1.00;;;40.20;43.60;;;;;;5033426;28;20588;-74
2022/05/16 10:11:27;;;;;;;1.90;0.90;;;40.30;45.10;;;;;;5033238;28;20965;-73
2022/05/16 10:13:54;;;;;;;3.20;1.27;;;40.70;45.00;;;;;;5033328;28;20602;-74
2022/05/16 10:16:20;;;;;;;2.73;1.00;;;40.80;42.80;;;;;;5033195;28;20647;-74
2022/05/16 10:18:50;;;;;;;3.30;1.13;;;40.80;42.60;;;;;;5032647;28;20595;-73
2022/05/16 10:21:30;;;;;;;4.03;1.30;;;40.70;41.80;;;;;;5033298;28;20575;-73
2022/05/16 10:23:58;;;;;;;2.50;0.90;;;40.90;43.40;;;;;;5032265;28;20967;-73
2022/05/16 10:26:29;;;;;;;5.40;1.43;;;41.30;42.80;;;;;;5032830;28;20646;-73
2022/05/16 10:28:59;;;;;;;1.80;1.00;;;41.70;42.50;;;;;;5032959;28;20564;-73
2022/05/16 10:34:22;;;;;;;2.87;1.00;;;42.40;41.10;;;;;;5033476;28;20588;-73
2022/05/16 10:36:52;;;;;;;2.43;1.00;;;42.70;41.40;;;;;;5032395;28;20566;-73
2022/05/16 10:39:28;;;;;;;1.50;1.00;;;43.00;40.30;;;;;;5009740;28;20710;-74
2022/05/16 10:42:04;;;;;;;4.83;1.00;;;43.30;39.60;;;;;;5032225;28;20585;-74
2022/05/16 10:44:43;;;;;;;2.80;1.00;;;43.40;39.30;;;;;;5028425;28;20983;-74
2022/05/16 10:47:31;;;;;;;1.67;0.97;;;43.60;39.70;;;;;;5031983;28;20614;-73
2022/05/16 10:50:21;;;;;;;1.90;0.80;;;43.70;39.30;;;;;;5019626;28;20580;-73
2022/05/16 10:53:11;;;;;;;1.90;1.00;;;43.70;39.50;;;;;;5032828;28;20708;-74
2022/05/16 10:56:06;;;;;;;3.13;1.00;;;43.60;37.80;;;;;;5032279;28;20607;-73
2022/05/16 10:58:53;;;;;;;2.63;1.00;;;43.20;37.10;;;;;;5032410;28;21027;-73
2022/05/16 11:01:31;;;;;;;2.27;1.00;;;42.70;35.60;;;;;;5032078;28;20582;-72
2022/05/16 11:04:39;;;;;;;1.77;0.80;;;41.90;35.80;;;;;;5032722;28;20561;-72
2022/05/16 11:07:35;;;;;;;1.80;0.80;;;41.00;36.60;;;;;;5018063;28;20683;-73
2022/05/16 11:10:12;;;;;;;2.17;1.27;;;40.20;36.40;;;;;;5032368;28;20572;-72
2022/05/16 11:12:51;;;;;;;3.90;1.30;;;39.40;36.90;;;;;;5032036;28;20572;-73
2022/05/16 11:15:20;;;;;;;2.83;1.13;;;38.80;37.60;;;;;;5031675;28;20786;-73
2022/05/16 11:17:55;;;;;;;4.93;1.07;;;38.60;39.20;;;;;;5032026;28;21186;-74
2022/05/16 11:20:38;;;;;;;4.50;1.97;;;38.70;39.10;;;;;;5032055;28;20568;-73
2022/05/16 11:23:22;;;;;;;2.83;1.53;;;38.90;39.80;;;;;;5014299;28;20588;-73
2022/05/16 11:26:11;;;;;;;2.10;1.20;;;39.20;40.40;;;;;;5031166;28;20612;-81
2022/05/16 11:29:19;;;;;;;2.90;1.60;;;39.60;40.30;;;;;;5031378;28;20557;-82
2022/05/16 11:32:06;;;;;;;2.20;1.27;;;40.00;40.00;;;;;;5001097;28;20668;-82
2022/05/16 11:35:14;;;;;;;2.37;0.90;;;40.30;39.50;;;;;;5030800;28;21173;-81
2022/05/16 11:38:07;;;;;;;3.00;1.20;;;40.30;38.80;;;;;;5015928;28;20635;-82
2022/05/16 11:40:42;;;;;;;3.00;1.20;;;40.10;38.40;;;;;;4994643;28;21273;-83
2022/05/16 11:43:25;;;;;;;4.93;1.87;;;39.70;38.10;;;;;;5011354;28;20577;-82
2022/05/16 11:45:59;;;;;;;4.37;1.43;;;39.20;38.00;;;;;;5010453;28;20691;-82
2022/05/16 11:48:43;;;;;;;5.47;1.50;;;38.50;38.10;;;;;;5012132;28;20921;-82
2022/05/16 11:51:21;;;;;;;11.60;2.07;;;37.80;38.40;;;;;;5011961;28;20604;-82
2022/05/16 11:53:53;;;;;;;4.50;1.67;;;37.00;39.00;;;;;;5019075;28;20599;-82
2022/05/16 12:02:12;;;;;;;4.27;2.37;;;35.00;41.00;;;;;;5028446;28;20589;-82
2022/05/16 12:04:43;;;;;;;5.07;1.90;;;34.40;41.30;;;;;;5031035;28;20624;-82
2022/05/16 12:07:39;;;;;;;4.50;1.63;;;33.90;41.90;;;;;;5029107;28;20742;-81
2022/05/16 12:10:10;;;;;;;4.50;1.63;;;33.40;42.40;;;;;;5030824;28;20579;-82
2022/05/16 12:13:07;;;;;;;4.87;1.80;;;32.90;42.80;;;;;;5030598;28;21178;-82
2022/05/16 12:15:33;;;;;;;7.40;1.57;;;32.40;43.20;;;;;;5031176;28;21202;-82
2022/05/16 12:18:07;;;;;;;6.67;1.80;;;31.90;43.50;;;;;;5031620;28;20616;-82
2022/05/16 12:20:42;;;;;;;6.10;1.97;;;31.50;44.20;;;;;;5031015;28;20196;-81
2022/05/16 12:23:10;;;;;;;5.90;2.13;;;31.20;44.60;;;;;;5032284;28;20615;-82
2022/05/16 12:25:38;;;;;;;3.00;1.37;;;30.80;45.60;;;;;;5029484;28;20650;-73
2022/05/16 12:28:13;;;;;;;3.63;1.30;;;30.50;46.10;;;;;;5028084;28;21085;-74
2022/05/16 12:30:48;;;;;;;6.67;1.53;;;30.30;47.10;;;;;;5030435;28;20584;-73
2022/05/16 12:33:25;;;;;;;4.40;2.57;;;30.00;47.80;;;;;;5031532;28;20947;-74
2022/05/16 12:35:53;;;;;;;6.53;3.03;;;29.70;49.20;;;;;;5032992;28;20596;-74
2022/05/16 12:38:22;;;;;;;7.00;2.00;;;29.40;48.80;;;;;;5033594;28;20647;-74
2022/05/16 12:41:38;;;;;;;5.67;2.10;;;29.20;49.90;;;;;;5031794;28;20560;-74
2022/05/16 12:44:31;;;;;;;9.47;3.43;;;28.90;50.80;;;;;;5029362;28;20628;-74
2022/05/16 12:47:32;;;;;;;5.77;2.00;;;28.30;52.20;;;;;;5027879;28;20584;-72
2022/05/16 12:50:22;;;;;;;7.23;1.77;;;27.40;53.10;;;;;;5025884;28;21193;-73
2022/05/16 12:53:25;;;;;;;6.13;2.40;;;26.40;55.10;;;;;;5027469;28;20625;-73
2022/05/16 12:56:01;;;;;;;4.87;2.13;;;25.40;57.40;;;;;;5028045;28;20620;-73
2022/05/16 12:58:40;;;;;;;6.23;2.63;;;24.50;56.50;;;;;;5026527;28;20647;-75
2022/05/16 13:01:26;;;;;;;4.97;2.57;;;23.90;58.10;;;;;;5027470;28;20564;-75
2022/05/16 13:04:33;;;;;;;3.97;2.10;;;23.40;60.60;;;;;;5028401;28;20563;-75
2022/05/16 13:07:09;;;;;;;5.63;1.67;;;22.80;63.80;;;;;;5027945;28;20642;-74
2022/05/16 13:09:49;;;;;;;4.80;1.60;;;22.30;71.00;;;;;;5028549;28;20582;-76
2022/05/16 13:12:36;;;;;;;4.23;1.83;;;21.90;76.30;;;;;;5012609;28;20592;-76
2022/05/16 13:15:26;;;;;;;2.93;1.33;;;21.60;82.10;;;;;;5027836;28;20604;-73
2022/05/16 13:17:57;;;;;;;3.23;1.40;;;21.30;88.30;;;;;;5026123;28;20790;-75
2022/05/16 13:20:32;;;;;;;5.90;1.60;;;21.10;85.50;;;;;;5025925;28;20607;-74
2022/05/16 13:22:58;;;;;;;4.13;1.53;;;21.00;88.30;;;;;;5026353;28;20619;-76
2022/05/16 13:25:26;;;;;;;8.10;1.43;;;20.80;90.10;;;;;;5028109;28;20667;-74
2022/05/16 13:30:46;;;;;;;3.33;1.77;;;20.70;93.40;;;;;;5028811;28;20715;-75
2022/05/16 13:33:28;;;;;;;4.10;1.73;;;20.80;94.20;;;;;;5030246;28;20580;-74
2022/05/16 13:35:54;;;;;;;3.63;1.70;;;20.80;96.80;;;;;;5028338;28;20737;-75
2022/05/16 13:38:20;;;;;;;3.40;1.87;;;20.90;96.40;;;;;;5030550;28;20614;-74
2022/05/16 13:40:48;;;;;;;3.60;1.90;;;20.90;97.40;;;;;;5029458;28;20565;-75
2022/05/16 13:43:32;;;;;;;5.17;1.90;;;21.00;98.40;;;;;;5030175;28;20182;-75
2022/05/16 13:46:07;;;;;;;7.00;2.13;;;21.10;99.90;;;;;;5028320;28;20615;-74
2022/05/16 13:48:32;;;;;;;3.10;2.20;;;21.20;99.90;;;;;;5030278;28;20674;-74
2022/05/16 13:51:00;;;;;;;4.93;2.20;;;21.30;99.90;;;;;;5028116;28;20853;-74
2022/05/16 13:53:28;;;;;;;5.90;2.30;;;21.40;99.90;;;;;;5020988;28;20177;-74
2022/05/16 13:55:58;;;;;;;5.00;2.00;;;21.50;99.90;;;;;;5027237;28;20628;-74
2022/05/16 13:58:30;;;;;;;5.57;2.60;;;21.70;99.90;;;;;;5026991;28;20589;-75
2022/05/16 14:01:18;;;;;;;3.40;1.87;;;21.80;99.90;;;;;;5029781;28;20986;-75